sensor_id;sensor_type;location;lat;lon;timestamp;pressure;altitude;pressure_sealevel;temperature;humidity
78117;BME280;69042;59.120;37.904;2023-06-22T00:01:12;100337.53;;;15.65;55.06
78117;BME280;69042;59.120;37.904;2023-06-22T00:03:39;100346.09;;;15.68;54.93
78117;BME280;69042;59.120;37.904;2023-06-22T00:06:06;100340.59;;;15.73;54.88
78117;BME280;69042;59.120;37.904;2023-06-22T00:08:33;100336.91;;;15.75;54.82
78117;BME280;69042;59.120;37.904;2023-06-22T00:11:00;100335.88;;;15.78;54.87
78117;BME280;69042;59.120;37.904;2023-06-22T00:13:26;100330.53;;;15.79;54.64
78117;BME280;69042;59.120;37.904;2023-06-22T00:15:56;100325.25;;;15.79;54.97
78117;BME280;69042;59.120;37.904;2023-06-22T00:18:22;100327.91;;;15.79;54.94
78117;BME280;69042;59.120;37.904;2023-06-22T00:20:57;100323.47;;;15.80;55.03
78117;BME280;69042;59.120;37.904;2023-06-22T00:23:24;100327.81;;;15.81;55.03
78117;BME280;69042;59.120;37.904;2023-06-22T00:25:50;100327.91;;;15.79;54.95
78117;BME280;69042;59.120;37.904;2023-06-22T00:28:19;100332.13;;;15.82;55.13
78117;BME280;69042;59.120;37.904;2023-06-22T00:30:46;100325.06;;;15.82;55.09
78117;BME280;69042;59.120;37.904;2023-06-22T00:33:12;100329.50;;;15.82;55.11
78117;BME280;69042;59.120;37.904;2023-06-22T00:35:41;100322.44;;;15.82;55.35
78117;BME280;69042;59.120;37.904;2023-06-22T00:38:09;100317.91;;;15.85;55.35
78117;BME280;69042;59.120;37.904;2023-06-22T00:40:36;100326.78;;;15.84;55.34
78117;BME280;69042;59.120;37.904;2023-06-22T00:43:05;100325.06;;;15.82;55.39
78117;BME280;69042;59.120;37.904;2023-06-22T00:45:32;100335.59;;;15.82;55.22
78117;BME280;69042;59.120;37.904;2023-06-22T00:47:59;100335.03;;;15.77;55.36
78117;BME280;69042;59.120;37.904;2023-06-22T00:50:28;100341.34;;;15.75;55.63
78117;BME280;69042;59.120;37.904;2023-06-22T00:52:57;100343.22;;;15.73;55.47
78117;BME280;69042;59.120;37.904;2023-06-22T00:55:25;100343.16;;;15.74;55.63
78117;BME280;69042;59.120;37.904;2023-06-22T00:57:52;100352.84;;;15.74;55.71
78117;BME280;69042;59.120;37.904;2023-06-22T01:00:23;100369.38;;;15.76;55.50
78117;BME280;69042;59.120;37.904;2023-06-22T01:02:51;100384.19;;;15.78;55.66
78117;BME280;69042;59.120;37.904;2023-06-22T01:05:20;100390.09;;;15.82;55.43
78117;BME280;69042;59.120;37.904;2023-06-22T01:13:02;100388.97;;;15.86;55.89
78117;BME280;69042;59.120;37.904;2023-06-22T01:15:36;100390.59;;;15.89;55.80
78117;BME280;69042;59.120;37.904;2023-06-22T01:18:08;100393.03;;;15.92;55.66
78117;BME280;69042;59.120;37.904;2023-06-22T01:20:37;100384.94;;;15.95;55.75
78117;BME280;69042;59.120;37.904;2023-06-22T01:26:17;100387.31;;;15.99;55.75
78117;BME280;69042;59.120;37.904;2023-06-22T01:28:50;100376.78;;;15.99;55.49
78117;BME280;69042;59.120;37.904;2023-06-22T01:31:19;100373.38;;;15.97;55.66
78117;BME280;69042;59.120;37.904;2023-06-22T01:33:54;100377.03;;;15.95;55.67
78117;BME280;69042;59.120;37.904;2023-06-22T01:36:22;100370.06;;;15.94;55.72
78117;BME280;69042;59.120;37.904;2023-06-22T01:38:49;100369.97;;;15.95;55.81
78117;BME280;69042;59.120;37.904;2023-06-22T01:41:20;100377.97;;;15.94;55.72
78117;BME280;69042;59.120;37.904;2023-06-22T01:43:48;100380.53;;;15.95;55.87
78117;BME280;69042;59.120;37.904;2023-06-22T01:46:15;100385.72;;;15.97;55.76
78117;BME280;69042;59.120;37.904;2023-06-22T01:48:41;100380.31;;;15.98;55.79
78117;BME280;69042;59.120;37.904;2023-06-22T01:51:08;100381.19;;;15.99;55.98
78117;BME280;69042;59.120;37.904;2023-06-22T01:53:34;100374.06;;;16.01;55.99
78117;BME280;69042;59.120;37.904;2023-06-22T01:56:01;100376.78;;;15.99;56.22
78117;BME280;69042;59.120;37.904;2023-06-22T01:58:31;100380.25;;;16.00;56.20
78117;BME280;69042;59.120;37.904;2023-06-22T02:01:10;100376.00;;;15.97;56.38
78117;BME280;69042;59.120;37.904;2023-06-22T02:03:41;100377.69;;;15.98;56.35
78117;BME280;69042;59.120;37.904;2023-06-22T02:06:33;100375.16;;;15.97;56.35
78117;BME280;69042;59.120;37.904;2023-06-22T02:09:03;100355.88;;;15.96;56.16
78117;BME280;69042;59.120;37.904;2023-06-22T02:11:33;100360.28;;;15.96;56.58
78117;BME280;69042;59.120;37.904;2023-06-22T02:14:02;100357.63;;;15.96;56.64
78117;BME280;69042;59.120;37.904;2023-06-22T02:16:31;100362.16;;;15.94;56.74
78117;BME280;69042;59.120;37.904;2023-06-22T02:19:01;100367.44;;;15.94;57.12
78117;BME280;69042;59.120;37.904;2023-06-22T02:21:29;100366.50;;;15.95;57.13
78117;BME280;69042;59.120;37.904;2023-06-22T02:23:58;100364.72;;;15.95;57.31
78117;BME280;69042;59.120;37.904;2023-06-22T02:26:26;100357.75;;;15.94;57.39
78117;BME280;69042;59.120;37.904;2023-06-22T02:28:53;100362.16;;;15.94;57.45
78117;BME280;69042;59.120;37.904;2023-06-22T02:31:21;100362.44;;;15.89;57.62
78117;BME280;69042;59.120;37.904;2023-06-22T02:33:59;100361.59;;;15.89;57.55
78117;BME280;69042;59.120;37.904;2023-06-22T02:36:26;100361.69;;;15.87;57.86
78117;BME280;69042;59.120;37.904;2023-06-22T02:38:56;100355.75;;;15.84;57.58
78117;BME280;69042;59.120;37.904;2023-06-22T02:41:25;100357.72;;;15.80;57.68
78117;BME280;69042;59.120;37.904;2023-06-22T02:43:54;100358.00;;;15.75;57.61
78117;BME280;69042;59.120;37.904;2023-06-22T02:46:20;100364.22;;;15.74;57.73
78117;BME280;69042;59.120;37.904;2023-06-22T02:48:48;100361.66;;;15.73;58.01
78117;BME280;69042;59.120;37.904;2023-06-22T02:51:14;100359.28;;;15.68;58.18
78117;BME280;69042;59.120;37.904;2023-06-22T02:53:42;100374.91;;;15.71;57.95
78117;BME280;69042;59.120;37.904;2023-06-22T02:56:12;100381.19;;;15.69;57.74
78117;BME280;69042;59.120;37.904;2023-06-22T02:58:39;100383.06;;;15.67;58.30
78117;BME280;69042;59.120;37.904;2023-06-22T03:01:10;100384.78;;;15.68;58.34
78117;BME280;69042;59.120;37.904;2023-06-22T03:03:41;100389.00;;;15.70;58.83
78117;BME280;69042;59.120;37.904;2023-06-22T03:06:09;100391.59;;;15.72;58.77
78117;BME280;69042;59.120;37.904;2023-06-22T03:08:40;100382.66;;;15.74;59.03
78117;BME280;69042;59.120;37.904;2023-06-22T03:11:08;100375.59;;;15.75;59.20
78117;BME280;69042;59.120;37.904;2023-06-22T03:13:34;100368.81;;;15.71;59.24
78117;BME280;69042;59.120;37.904;2023-06-22T03:16:00;100368.81;;;15.71;59.58
78117;BME280;69042;59.120;37.904;2023-06-22T03:18:27;100372.38;;;15.70;59.85
78117;BME280;69042;59.120;37.904;2023-06-22T03:20:53;100385.63;;;15.68;60.02
78117;BME280;69042;59.120;37.904;2023-06-22T03:23:19;100383.94;;;15.67;60.26
78117;BME280;69042;59.120;37.904;2023-06-22T03:25:47;100384.66;;;15.69;60.61
78117;BME280;69042;59.120;37.904;2023-06-22T03:28:13;100384.63;;;15.71;60.61
78117;BME280;69042;59.120;37.904;2023-06-22T03:30:41;100369.66;;;15.71;60.57
78117;BME280;69042;59.120;37.904;2023-06-22T03:33:09;100363.47;;;15.72;60.68
78117;BME280;69042;59.120;37.904;2023-06-22T03:35:35;100358.84;;;15.76;60.87
78117;BME280;69042;59.120;37.904;2023-06-22T03:38:01;100362.50;;;15.73;60.90
78117;BME280;69042;59.120;37.904;2023-06-22T03:40:30;100366.34;;;15.68;61.04
78117;BME280;69042;59.120;37.904;2023-06-22T03:42:57;100369.31;;;15.61;61.52
78117;BME280;69042;59.120;37.904;2023-06-22T03:45:23;100376.66;;;15.56;61.57
78117;BME280;69042;59.120;37.904;2023-06-22T03:47:51;100381.44;;;15.50;61.65
78117;BME280;69042;59.120;37.904;2023-06-22T03:50:18;100374.84;;;15.43;61.66
78117;BME280;69042;59.120;37.904;2023-06-22T03:52:47;100368.81;;;15.40;61.97
78117;BME280;69042;59.120;37.904;2023-06-22T03:55:14;100366.25;;;15.39;62.26
78117;BME280;69042;59.120;37.904;2023-06-22T03:57:41;100363.53;;;15.40;62.34
78117;BME280;69042;59.120;37.904;2023-06-22T04:00:08;100362.50;;;15.43;62.28
78117;BME280;69042;59.120;37.904;2023-06-22T04:02:40;100366.81;;;15.44;62.25
78117;BME280;69042;59.120;37.904;2023-06-22T04:05:10;100369.19;;;15.49;62.37
78117;BME280;69042;59.120;37.904;2023-06-22T04:07:36;100382.09;;;15.53;62.33
78117;BME280;69042;59.120;37.904;2023-06-22T04:10:04;100383.03;;;15.52;62.19
78117;BME280;69042;59.120;37.904;2023-06-22T04:12:30;100383.88;;;15.53;62.48
78117;BME280;69042;59.120;37.904;2023-06-22T04:14:57;100381.94;;;15.56;62.69
78117;BME280;69042;59.120;37.904;2023-06-22T04:17:25;100379.88;;;15.61;63.00
78117;BME280;69042;59.120;37.904;2023-06-22T04:19:53;100369.81;;;15.68;63.25
78117;BME280;69042;59.120;37.904;2023-06-22T04:22:19;100365.91;;;15.75;63.30
78117;BME280;69042;59.120;37.904;2023-06-22T04:24:46;100368.09;;;15.83;63.37
78117;BME280;69042;59.120;37.904;2023-06-22T04:27:12;100370.63;;;15.85;63.03
78117;BME280;69042;59.120;37.904;2023-06-22T04:29:43;100372.59;;;15.81;63.27
78117;BME280;69042;59.120;37.904;2023-06-22T04:32:15;100388.59;;;15.78;63.17
78117;BME280;69042;59.120;37.904;2023-06-22T04:34:42;100382.47;;;15.77;63.49
78117;BME280;69042;59.120;37.904;2023-06-22T04:37:09;100385.66;;;15.82;63.92
78117;BME280;69042;59.120;37.904;2023-06-22T04:39:35;100375.81;;;15.86;63.63
78117;BME280;69042;59.120;37.904;2023-06-22T04:42:04;100365.94;;;15.90;63.81
78117;BME280;69042;59.120;37.904;2023-06-22T04:44:35;100357.75;;;15.94;63.85
78117;BME280;69042;59.120;37.904;2023-06-22T04:47:02;100344.38;;;15.97;63.84
78117;BME280;69042;59.120;37.904;2023-06-22T04:49:36;100326.59;;;16.01;63.99
78117;BME280;69042;59.120;37.904;2023-06-22T04:52:05;100310.69;;;16.02;64.05
78117;BME280;69042;59.120;37.904;2023-06-22T04:54:35;100292.69;;;16.09;64.43
78117;BME280;69042;59.120;37.904;2023-06-22T04:57:05;100267.19;;;16.24;64.39
78117;BME280;69042;59.120;37.904;2023-06-22T04:59:37;100252.25;;;16.37;63.93
78117;BME280;69042;59.120;37.904;2023-06-22T05:02:05;100250.09;;;16.44;63.78
78117;BME280;69042;59.120;37.904;2023-06-22T05:04:32;100256.75;;;16.50;63.66
78117;BME280;69042;59.120;37.904;2023-06-22T05:07:02;100270.47;;;16.55;63.55
78117;BME280;69042;59.120;37.904;2023-06-22T05:09:31;100282.53;;;16.59;63.22
78117;BME280;69042;59.120;37.904;2023-06-22T05:12:02;100297.31;;;16.61;63.12
78117;BME280;69042;59.120;37.904;2023-06-22T05:14:29;100311.38;;;16.62;63.02
78117;BME280;69042;59.120;37.904;2023-06-22T05:16:56;100326.63;;;16.57;63.00
78117;BME280;69042;59.120;37.904;2023-06-22T05:19:26;100342.75;;;16.52;63.00
78117;BME280;69042;59.120;37.904;2023-06-22T05:22:00;100346.50;;;16.48;63.09
78117;BME280;69042;59.120;37.904;2023-06-22T05:24:29;100337.28;;;16.41;63.05
78117;BME280;69042;59.120;37.904;2023-06-22T05:26:55;100345.31;;;16.39;63.28
78117;BME280;69042;59.120;37.904;2023-06-22T05:29:22;100354.16;;;16.38;63.60
78117;BME280;69042;59.120;37.904;2023-06-22T05:31:50;100350.59;;;16.39;63.73
78117;BME280;69042;59.120;37.904;2023-06-22T05:34:17;100336.44;;;16.40;63.72
78117;BME280;69042;59.120;37.904;2023-06-22T05:36:44;100331.72;;;16.45;63.90
78117;BME280;69042;59.120;37.904;2023-06-22T05:39:14;100335.97;;;16.48;63.88
78117;BME280;69042;59.120;37.904;2023-06-22T05:41:42;100327.13;;;16.49;63.97
78117;BME280;69042;59.120;37.904;2023-06-22T05:44:12;100324.56;;;16.48;63.83
78117;BME280;69042;59.120;37.904;2023-06-22T05:46:41;100313.38;;;16.44;63.98
78117;BME280;69042;59.120;37.904;2023-06-22T05:49:12;100316.94;;;16.43;64.08
78117;BME280;69042;59.120;37.904;2023-06-22T05:51:40;100317.44;;;16.35;64.02
78117;BME280;69042;59.120;37.904;2023-06-22T05:54:08;100328.56;;;16.26;64.06
78117;BME280;69042;59.120;37.904;2023-06-22T05:56:35;100321.88;;;16.20;64.37
78117;BME280;69042;59.120;37.904;2023-06-22T05:59:02;100317.56;;;16.19;64.56
78117;BME280;69042;59.120;37.904;2023-06-22T06:01:29;100299.19;;;16.18;64.81
78117;BME280;69042;59.120;37.904;2023-06-22T06:03:57;100308.13;;;16.15;65.21
78117;BME280;69042;59.120;37.904;2023-06-22T06:06:26;100310.69;;;16.17;65.31
78117;BME280;69042;59.120;37.904;2023-06-22T06:08:54;100313.88;;;16.22;65.48
78117;BME280;69042;59.120;37.904;2023-06-22T06:11:21;100319.69;;;16.27;65.25
78117;BME280;69042;59.120;37.904;2023-06-22T06:13:49;100319.31;;;16.33;65.48
78117;BME280;69042;59.120;37.904;2023-06-22T06:16:16;100318.06;;;16.39;65.61
78117;BME280;69042;59.120;37.904;2023-06-22T06:18:43;100319.69;;;16.41;65.20
78117;BME280;69042;59.120;37.904;2023-06-22T06:21:09;100321.19;;;16.45;65.22
78117;BME280;69042;59.120;37.904;2023-06-22T06:23:38;100325.41;;;16.48;65.36
78117;BME280;69042;59.120;37.904;2023-06-22T06:26:04;100325.16;;;16.53;65.39
78117;BME280;69042;59.120;37.904;2023-06-22T06:28:35;100324.84;;;16.57;65.13
78117;BME280;69042;59.120;37.904;2023-06-22T06:31:02;100326.44;;;16.60;65.32
78117;BME280;69042;59.120;37.904;2023-06-22T06:33:34;100318.31;;;16.63;65.40
78117;BME280;69042;59.120;37.904;2023-06-22T06:36:00;100320.28;;;16.74;65.64
78117;BME280;69042;59.120;37.904;2023-06-22T06:38:30;100319.78;;;16.81;65.67
78117;BME280;69042;59.120;37.904;2023-06-22T06:40:58;100318.56;;;16.87;65.99
78117;BME280;69042;59.120;37.904;2023-06-22T06:43:26;100304.84;;;16.95;65.54
78117;BME280;69042;59.120;37.904;2023-06-22T06:45:52;100303.41;;;17.03;65.52
78117;BME280;69042;59.120;37.904;2023-06-22T06:48:19;100310.81;;;17.11;65.33
78117;BME280;69042;59.120;37.904;2023-06-22T06:50:45;100306.94;;;17.17;65.17
78117;BME280;69042;59.120;37.904;2023-06-22T06:53:12;100300.69;;;17.18;64.92
78117;BME280;69042;59.120;37.904;2023-06-22T06:55:41;100314.00;;;17.16;64.96
78117;BME280;69042;59.120;37.904;2023-06-22T06:58:10;100316.00;;;17.13;65.13
78117;BME280;69042;59.120;37.904;2023-06-22T07:00:39;100305.13;;;17.04;64.86
78117;BME280;69042;59.120;37.904;2023-06-22T07:03:05;100307.84;;;17.03;65.11
78117;BME280;69042;59.120;37.904;2023-06-22T07:05:34;100304.91;;;17.08;65.15
78117;BME280;69042;59.120;37.904;2023-06-22T07:08:00;100300.06;;;17.14;65.14
78117;BME280;69042;59.120;37.904;2023-06-22T07:10:26;100302.84;;;17.25;64.93
78117;BME280;69042;59.120;37.904;2023-06-22T07:12:57;100293.84;;;17.28;64.97
78117;BME280;69042;59.120;37.904;2023-06-22T07:15:23;100293.97;;;17.39;65.10
78117;BME280;69042;59.120;37.904;2023-06-22T07:17:49;100282.47;;;17.53;64.86
78117;BME280;69042;59.120;37.904;2023-06-22T07:20:17;100287.44;;;17.71;64.83
78117;BME280;69042;59.120;37.904;2023-06-22T07:22:46;100288.44;;;17.82;64.50
78117;BME280;69042;59.120;37.904;2023-06-22T07:25:13;100289.69;;;17.89;64.15
78117;BME280;69042;59.120;37.904;2023-06-22T07:27:46;100284.81;;;17.96;63.64
78117;BME280;69042;59.120;37.904;2023-06-22T07:30:23;100287.44;;;17.96;63.27
78117;BME280;69042;59.120;37.904;2023-06-22T07:32:50;100277.00;;;17.95;62.87
78117;BME280;69042;59.120;37.904;2023-06-22T07:35:17;100273.41;;;17.96;63.23
78117;BME280;69042;59.120;37.904;2023-06-22T07:37:44;100269.38;;;18.03;63.19
78117;BME280;69042;59.120;37.904;2023-06-22T07:40:13;100268.19;;;18.07;63.30
78117;BME280;69042;59.120;37.904;2023-06-22T07:42:41;100275.28;;;18.06;63.09
78117;BME280;69042;59.120;37.904;2023-06-22T07:45:09;100262.06;;;18.06;63.19
78117;BME280;69042;59.120;37.904;2023-06-22T07:47:36;100272.22;;;18.13;62.96
78117;BME280;69042;59.120;37.904;2023-06-22T07:50:05;100264.38;;;18.11;62.80
78117;BME280;69042;59.120;37.904;2023-06-22T07:52:32;100270.75;;;18.08;62.78
78117;BME280;69042;59.120;37.904;2023-06-22T07:54:59;100271.47;;;18.10;62.78
78117;BME280;69042;59.120;37.904;2023-06-22T07:57:26;100263.56;;;18.10;62.46
78117;BME280;69042;59.120;37.904;2023-06-22T07:59:59;100268.94;;;18.09;62.62
78117;BME280;69042;59.120;37.904;2023-06-22T08:02:27;100260.16;;;18.08;62.28
78117;BME280;69042;59.120;37.904;2023-06-22T08:04:53;100255.63;;;18.10;62.18
78117;BME280;69042;59.120;37.904;2023-06-22T08:07:20;100256.34;;;18.13;62.55
78117;BME280;69042;59.120;37.904;2023-06-22T08:09:49;100256.44;;;18.11;61.95
78117;BME280;69042;59.120;37.904;2023-06-22T08:12:16;100263.56;;;18.10;62.08
78117;BME280;69042;59.120;37.904;2023-06-22T08:14:43;100257.19;;;18.13;61.97
78117;BME280;69042;59.120;37.904;2023-06-22T08:17:13;100258.47;;;18.07;61.85
78117;BME280;69042;59.120;37.904;2023-06-22T08:19:39;100253.72;;;18.00;61.87
78117;BME280;69042;59.120;37.904;2023-06-22T08:22:06;100255.97;;;17.93;61.83
78117;BME280;69042;59.120;37.904;2023-06-22T08:24:32;100262.50;;;17.87;61.84
78117;BME280;69042;59.120;37.904;2023-06-22T08:26:59;100258.56;;;17.80;61.67
78117;BME280;69042;59.120;37.904;2023-06-22T08:29:27;100263.44;;;17.74;62.02
78117;BME280;69042;59.120;37.904;2023-06-22T08:31:54;100243.47;;;17.69;62.04
78117;BME280;69042;59.120;37.904;2023-06-22T08:34:21;100248.56;;;17.73;62.32
78117;BME280;69042;59.120;37.904;2023-06-22T08:36:51;100251.41;;;17.82;62.03
78117;BME280;69042;59.120;37.904;2023-06-22T08:39:20;100247.78;;;17.96;61.78
78117;BME280;69042;59.120;37.904;2023-06-22T08:41:48;100252.34;;;18.07;62.03
78117;BME280;69042;59.120;37.904;2023-06-22T08:44:18;100253.47;;;18.16;61.36
78117;BME280;69042;59.120;37.904;2023-06-22T08:46:45;100250.84;;;18.16;61.01
78117;BME280;69042;59.120;37.904;2023-06-22T08:49:11;100254.66;;;18.12;60.89
78117;BME280;69042;59.120;37.904;2023-06-22T08:51:38;100252.44;;;18.05;60.63
78117;BME280;69042;59.120;37.904;2023-06-22T08:54:06;100251.50;;;18.06;61.08
78117;BME280;69042;59.120;37.904;2023-06-22T08:56:33;100248.09;;;18.04;60.37
78117;BME280;69042;59.120;37.904;2023-06-22T08:59:02;100246.63;;;18.00;60.56
78117;BME280;69042;59.120;37.904;2023-06-22T09:01:30;100239.78;;;17.98;60.57
78117;BME280;69042;59.120;37.904;2023-06-22T09:03:57;100233.31;;;18.02;60.89
78117;BME280;69042;59.120;37.904;2023-06-22T09:06:25;100235.50;;;18.08;60.94
78117;BME280;69042;59.120;37.904;2023-06-22T09:08:51;100233.06;;;18.18;60.51
78117;BME280;69042;59.120;37.904;2023-06-22T09:11:18;100238.28;;;18.30;60.52
78117;BME280;69042;59.120;37.904;2023-06-22T09:13:44;100235.94;;;18.39;60.35
78117;BME280;69042;59.120;37.904;2023-06-22T09:16:14;100234.19;;;18.50;60.04
78117;BME280;69042;59.120;37.904;2023-06-22T09:18:41;100234.97;;;18.64;60.21
78117;BME280;69042;59.120;37.904;2023-06-22T09:21:09;100231.53;;;18.75;59.99
78117;BME280;69042;59.120;37.904;2023-06-22T09:23:35;100219.22;;;18.86;59.42
78117;BME280;69042;59.120;37.904;2023-06-22T09:26:01;100232.03;;;19.04;59.55
78117;BME280;69042;59.120;37.904;2023-06-22T09:28:28;100229.56;;;19.25;59.21
78117;BME280;69042;59.120;37.904;2023-06-22T09:30:55;100233.94;;;19.48;58.94
78117;BME280;69042;59.120;37.904;2023-06-22T09:33:26;100230.69;;;19.67;58.19
78117;BME280;69042;59.120;37.904;2023-06-22T09:35:52;100220.00;;;19.91;57.89
78117;BME280;69042;59.120;37.904;2023-06-22T09:38:19;100232.41;;;20.13;57.89
78117;BME280;69042;59.120;37.904;2023-06-22T09:40:47;100227.53;;;20.30;57.12
78117;BME280;69042;59.120;37.904;2023-06-22T09:43:16;100218.56;;;20.42;57.08
78117;BME280;69042;59.120;37.904;2023-06-22T09:45:43;100219.22;;;20.67;56.60
78117;BME280;69042;59.120;37.904;2023-06-22T09:48:10;100228.34;;;20.85;56.47
78117;BME280;69042;59.120;37.904;2023-06-22T09:50:36;100223.22;;;20.93;55.42
78117;BME280;69042;59.120;37.904;2023-06-22T09:53:04;100220.44;;;20.95;55.21
78117;BME280;69042;59.120;37.904;2023-06-22T09:55:31;100225.44;;;20.88;54.45
78117;BME280;69042;59.120;37.904;2023-06-22T09:57:58;100223.53;;;20.79;54.28
78117;BME280;69042;59.120;37.904;2023-06-22T10:00:25;100237.34;;;20.62;53.89
78117;BME280;69042;59.120;37.904;2023-06-22T10:02:52;100223.66;;;20.34;54.13
78117;BME280;69042;59.120;37.904;2023-06-22T10:05:19;100219.09;;;20.25;54.54
78117;BME280;69042;59.120;37.904;2023-06-22T10:07:47;100213.88;;;20.34;54.73
78117;BME280;69042;59.120;37.904;2023-06-22T10:10:14;100208.28;;;20.49;54.93
78117;BME280;69042;59.120;37.904;2023-06-22T10:12:55;100203.84;;;20.61;54.51
78117;BME280;69042;59.120;37.904;2023-06-22T10:15:21;100203.50;;;20.75;54.42
78117;BME280;69042;59.120;37.904;2023-06-22T10:17:48;100198.81;;;20.78;53.70
78117;BME280;69042;59.120;37.904;2023-06-22T10:20:15;100198.16;;;20.86;53.92
78117;BME280;69042;59.120;37.904;2023-06-22T10:22:44;100209.94;;;20.93;53.34
78117;BME280;69042;59.120;37.904;2023-06-22T10:25:12;100214.81;;;20.88;53.23
78117;BME280;69042;59.120;37.904;2023-06-22T10:27:40;100209.81;;;20.74;52.25
78117;BME280;69042;59.120;37.904;2023-06-22T10:30:11;100217.94;;;20.50;52.73
78117;BME280;69042;59.120;37.904;2023-06-22T10:32:42;100219.56;;;20.30;52.94
78117;BME280;69042;59.120;37.904;2023-06-22T10:35:12;100220.09;;;20.12;53.14
78117;BME280;69042;59.120;37.904;2023-06-22T10:37:45;100223.13;;;19.96;52.72
78117;BME280;69042;59.120;37.904;2023-06-22T10:40:13;100212.16;;;19.79;53.29
78117;BME280;69042;59.120;37.904;2023-06-22T10:42:41;100215.63;;;19.68;53.95
78117;BME280;69042;59.120;37.904;2023-06-22T10:45:09;100215.03;;;19.64;53.70
78117;BME280;69042;59.120;37.904;2023-06-22T10:47:36;100207.56;;;19.58;54.09
78117;BME280;69042;59.120;37.904;2023-06-22T10:50:03;100203.81;;;19.49;54.43
78117;BME280;69042;59.120;37.904;2023-06-22T10:52:30;100203.59;;;19.41;54.17
78117;BME280;69042;59.120;37.904;2023-06-22T10:54:58;100197.66;;;19.38;54.72
78117;BME280;69042;59.120;37.904;2023-06-22T10:57:26;100196.22;;;19.33;54.94
78117;BME280;69042;59.120;37.904;2023-06-22T10:59:55;100206.34;;;19.28;54.84
78117;BME280;69042;59.120;37.904;2023-06-22T11:02:23;100199.94;;;19.20;54.70
78117;BME280;69042;59.120;37.904;2023-06-22T11:04:50;100201.47;;;19.11;55.16
78117;BME280;69042;59.120;37.904;2023-06-22T11:07:16;100198.81;;;19.11;55.10
78117;BME280;69042;59.120;37.904;2023-06-22T11:09:43;100210.16;;;19.13;55.16
78117;BME280;69042;59.120;37.904;2023-06-22T11:12:10;100211.72;;;19.16;55.75
78117;BME280;69042;59.120;37.904;2023-06-22T11:14:39;100205.59;;;19.15;55.58
78117;BME280;69042;59.120;37.904;2023-06-22T11:17:06;100217.75;;;19.18;55.90
78117;BME280;69042;59.120;37.904;2023-06-22T11:19:33;100210.78;;;19.17;55.86
78117;BME280;69042;59.120;37.904;2023-06-22T11:21:59;100215.47;;;19.24;55.97
78117;BME280;69042;59.120;37.904;2023-06-22T11:24:25;100213.81;;;19.34;55.63
78117;BME280;69042;59.120;37.904;2023-06-22T11:26:52;100219.13;;;19.46;55.81
78117;BME280;69042;59.120;37.904;2023-06-22T11:29:18;100211.78;;;19.49;55.30
78117;BME280;69042;59.120;37.904;2023-06-22T11:31:45;100212.63;;;19.50;55.64
78117;BME280;69042;59.120;37.904;2023-06-22T11:34:12;100209.13;;;19.49;55.30
78117;BME280;69042;59.120;37.904;2023-06-22T11:36:39;100201.53;;;19.45;55.07
78117;BME280;69042;59.120;37.904;2023-06-22T11:39:08;100196.84;;;19.37;55.07
78117;BME280;69042;59.120;37.904;2023-06-22T11:41:38;100190.44;;;19.28;54.71
78117;BME280;69042;59.120;37.904;2023-06-22T11:44:04;100188.97;;;19.13;55.33
78117;BME280;69042;59.120;37.904;2023-06-22T11:46:30;100193.66;;;18.98;55.21
78117;BME280;69042;59.120;37.904;2023-06-22T11:48:57;100183.63;;;18.90;55.57
78117;BME280;69042;59.120;37.904;2023-06-22T11:51:25;100185.03;;;18.83;55.92
78117;BME280;69042;59.120;37.904;2023-06-22T11:53:54;100168.75;;;18.77;56.03
78117;BME280;69042;59.120;37.904;2023-06-22T11:56:21;100176.41;;;18.68;56.36
78117;BME280;69042;59.120;37.904;2023-06-22T11:58:48;100173.91;;;18.67;56.58
78117;BME280;69042;59.120;37.904;2023-06-22T12:01:15;100163.91;;;18.70;56.94
78117;BME280;69042;59.120;37.904;2023-06-22T12:03:43;100170.00;;;18.84;57.12
78117;BME280;69042;59.120;37.904;2023-06-22T12:06:09;100166.44;;;18.96;56.73
78117;BME280;69042;59.120;37.904;2023-06-22T12:08:37;100167.19;;;19.09;56.75
78117;BME280;69042;59.120;37.904;2023-06-22T12:11:04;100168.88;;;19.33;57.09
78117;BME280;69042;59.120;37.904;2023-06-22T12:13:30;100161.19;;;19.64;56.83
78117;BME280;69042;59.120;37.904;2023-06-22T12:15:57;100155.25;;;19.94;56.34
78117;BME280;69042;59.120;37.904;2023-06-22T12:18:23;100165.69;;;20.18;55.55
78117;BME280;69042;59.120;37.904;2023-06-22T12:20:50;100158.28;;;20.33;54.93
78117;BME280;69042;59.120;37.904;2023-06-22T12:23:16;100157.66;;;20.41;54.69
78117;BME280;69042;59.120;37.904;2023-06-22T12:25:44;100153.84;;;20.54;54.43
78117;BME280;69042;59.120;37.904;2023-06-22T12:28:12;100148.03;;;20.72;54.36
78117;BME280;69042;59.120;37.904;2023-06-22T12:30:38;100153.00;;;20.86;54.06
78117;BME280;69042;59.120;37.904;2023-06-22T12:33:04;100134.78;;;21.03;53.50
78117;BME280;69042;59.120;37.904;2023-06-22T12:35:31;100146.88;;;21.16;52.92
78117;BME280;69042;59.120;37.904;2023-06-22T12:37:58;100146.50;;;21.21;52.67
78117;BME280;69042;59.120;37.904;2023-06-22T12:40:25;100142.16;;;21.20;52.72
78117;BME280;69042;59.120;37.904;2023-06-22T12:42:51;100148.56;;;21.17;52.26
78117;BME280;69042;59.120;37.904;2023-06-22T12:45:18;100147.16;;;21.13;52.47
78117;BME280;69042;59.120;37.904;2023-06-22T12:47:49;100153.63;;;21.20;52.59
78117;BME280;69042;59.120;37.904;2023-06-22T12:50:16;100148.22;;;21.32;52.23
78117;BME280;69042;59.120;37.904;2023-06-22T12:52:46;100161.19;;;21.46;52.49